Time;durP1;ratioP1;P1;durP2;ratioP2;P2;SDS_P1;SDS_P2;PMS_P1;PMS_P2;Temp;Humidity;BMP_temperature;BMP_pressure;BME280_temperature;BME280_humidity;BME280_pressure;Samples;Min_cycle;Max_cycle;Signal;HPM_P1;HPM_P2
2023/11/10 00:01:53;;;;;;;3.47;0.90;;;9.80;99.90;;;;;;4994477;28;20468;-71
2023/11/10 00:04:20;;;;;;;4.57;0.70;;;9.80;99.90;;;;;;4993148;28;20447;-71
2023/11/10 00:06:47;;;;;;;4.83;1.23;;;9.80;99.90;;;;;;4994480;28;20449;-71
2023/11/10 00:09:14;;;;;;;3.80;1.00;;;9.90;99.90;;;;;;4992859;28;20468;-71
2023/11/10 00:11:42;;;;;;;3.07;0.93;;;9.90;99.90;;;;;;4994250;28;20451;-71
2023/11/10 00:14:10;;;;;;;2.60;0.80;;;9.90;99.80;;;;;;4996999;28;20507;-70
2023/11/10 00:16:38;;;;;;;3.43;1.70;;;9.90;99.80;;;;;;5000142;28;20456;-71
2023/11/10 00:19:08;;;;;;;2.03;0.90;;;9.90;99.70;;;;;;4997372;28;20491;-70
2023/11/10 00:21:36;;;;;;;2.53;1.10;;;9.90;99.80;;;;;;4999122;28;20862;-71
2023/11/10 00:24:05;;;;;;;2.90;1.07;;;9.90;99.70;;;;;;4998394;28;20474;-71
2023/11/10 00:26:36;;;;;;;4.87;0.80;;;9.90;99.70;;;;;;4999658;28;20456;-70
2023/11/10 00:29:03;;;;;;;4.20;0.70;;;10.00;99.30;;;;;;5001434;28;20487;-68
2023/11/10 00:31:31;;;;;;;2.23;0.90;;;9.90;99.90;;;;;;5000680;28;20622;-67
2023/11/10 00:33:57;;;;;;;3.10;0.90;;;9.80;99.90;;;;;;5001132;28;20448;-68
2023/11/10 00:36:24;;;;;;;4.30;1.10;;;9.70;99.90;;;;;;5000680;28;20487;-69
2023/11/10 00:38:51;;;;;;;4.07;1.00;;;9.80;99.90;;;;;;5000352;28;20225;-70
2023/11/10 00:41:19;;;;;;;2.33;1.23;;;9.80;99.90;;;;;;5000216;28;20554;-71
2023/11/10 00:43:46;;;;;;;2.87;1.00;;;9.80;99.90;;;;;;5009015;28;20440;-70
2023/11/10 00:46:13;;;;;;;7.20;1.30;;;9.90;99.90;;;;;;5006453;28;20535;-71
2023/11/10 00:48:41;;;;;;;3.60;1.00;;;9.90;99.90;;;;;;5001620;28;20456;-69
2023/11/10 00:51:08;;;;;;;2.83;0.93;;;9.90;99.90;;;;;;5001688;28;20506;-69
2023/11/10 00:53:35;;;;;;;2.43;0.90;;;10.00;99.90;;;;;;5001025;28;20452;-69
2023/11/10 00:56:03;;;;;;;2.00;1.13;;;9.90;99.90;;;;;;4999883;28;20452;-69
2023/11/10 00:58:30;;;;;;;2.97;1.27;;;10.00;99.90;;;;;;4999828;28;20440;-69
2023/11/10 01:00:56;;;;;;;2.60;1.60;;;10.00;99.90;;;;;;4997502;28;20452;-70
2023/11/10 01:03:24;;;;;;;2.87;1.10;;;10.00;99.90;;;;;;4997809;28;20448;-70
2023/11/10 01:05:54;;;;;;;2.63;1.07;;;10.00;99.90;;;;;;4997808;28;20456;-70
2023/11/10 01:08:20;;;;;;;1.77;1.10;;;10.00;99.90;;;;;;4997540;28;20440;-70
2023/11/10 01:10:48;;;;;;;4.20;1.17;;;10.00;99.90;;;;;;4995990;28;20483;-70
2023/11/10 01:13:14;;;;;;;3.83;1.20;;;10.00;99.90;;;;;;4997289;28;20498;-69
2023/11/10 01:15:42;;;;;;;5.70;1.30;;;10.00;99.80;;;;;;4997426;28;20452;-69
2023/11/10 01:18:08;;;;;;;3.47;1.30;;;10.00;99.80;;;;;;4996710;28;20488;-70
2023/11/10 01:20:35;;;;;;;2.57;1.10;;;9.90;99.90;;;;;;4996331;28;20476;-70
2023/11/10 01:23:03;;;;;;;6.00;1.47;;;9.90;99.90;;;;;;4996419;28;21020;-70
2023/11/10 01:25:31;;;;;;;2.43;1.27;;;9.80;99.90;;;;;;4996406;28;20448;-70
2023/11/10 01:27:58;;;;;;;2.83;1.20;;;9.90;99.90;;;;;;4995971;28;20800;-70
2023/11/10 01:30:25;;;;;;;5.30;1.60;;;9.90;99.90;;;;;;4995119;28;20969;-70
2023/11/10 01:32:52;;;;;;;3.17;1.17;;;9.90;99.90;;;;;;4994548;28;20992;-70
2023/11/10 01:35:19;;;;;;;2.67;1.00;;;9.90;99.90;;;;;;4995866;28;20444;-71
2023/11/10 01:37:47;;;;;;;2.90;2.70;;;10.00;99.70;;;;;;4995727;28;20829;-71
2023/11/10 01:40:15;;;;;;;2.63;1.33;;;10.00;99.80;;;;;;4993990;28;20837;-71
2023/11/10 01:42:42;;;;;;;1.57;1.10;;;10.10;99.60;;;;;;4995825;28;20488;-71
2023/11/10 01:45:11;;;;;;;3.90;0.93;;;10.00;99.30;;;;;;4995583;28;20445;-71
2023/11/10 01:47:39;;;;;;;3.30;1.30;;;10.00;99.50;;;;;;4995564;28;20476;-71
2023/11/10 01:50:07;;;;;;;4.37;1.43;;;10.10;99.50;;;;;;4995927;28;20472;-70
2023/11/10 01:52:35;;;;;;;3.70;1.00;;;10.00;99.40;;;;;;4995075;28;20448;-71
2023/11/10 01:55:03;;;;;;;5.03;1.70;;;10.00;99.20;;;;;;4995421;28;20449;-71
2023/11/10 01:57:31;;;;;;;3.80;1.13;;;10.00;99.40;;;;;;4994944;28;20451;-71
2023/11/10 02:00:01;;;;;;;0.97;0.87;;;10.00;99.40;;;;;;4951636;28;1252698;-71
2023/11/10 02:02:28;;;;;;;3.87;1.10;;;10.00;99.30;;;;;;4995283;28;20733;-71
2023/11/10 02:04:55;;;;;;;5.57;1.60;;;10.00;99.30;;;;;;4995212;28;20498;-71
2023/11/10 02:07:22;;;;;;;1.53;0.80;;;10.00;99.30;;;;;;4995849;28;20964;-71
2023/11/10 02:09:49;;;;;;;3.40;1.00;;;10.00;99.10;;;;;;4996591;28;20499;-71
2023/11/10 02:12:16;;;;;;;3.07;1.20;;;10.10;99.10;;;;;;4995904;28;20942;-71
2023/11/10 02:14:44;;;;;;;2.70;1.27;;;10.10;98.90;;;;;;4996204;28;20444;-71
2023/11/10 02:17:11;;;;;;;4.90;1.83;;;10.10;99.00;;;;;;4994853;28;20797;-71
2023/11/10 02:19:41;;;;;;;4.33;1.20;;;10.10;98.40;;;;;;4995881;28;20511;-70
2023/11/10 02:22:07;;;;;;;2.93;1.23;;;10.10;98.10;;;;;;4995501;28;20479;-71
2023/11/10 02:24:36;;;;;;;5.30;1.10;;;10.10;98.10;;;;;;4995886;28;20456;-71
2023/11/10 02:27:04;;;;;;;7.40;1.43;;;10.10;97.90;;;;;;4995771;28;20456;-71
2023/11/10 02:29:38;;;;;;;5.80;1.53;;;10.10;97.90;;;;;;4995811;28;20464;-71
2023/11/10 02:32:05;;;;;;;2.13;1.00;;;10.10;97.80;;;;;;4995787;28;20428;-70
2023/11/10 02:34:32;;;;;;;4.33;1.30;;;10.00;97.40;;;;;;4996263;28;20459;-71
2023/11/10 02:36:59;;;;;;;4.83;1.33;;;10.10;97.10;;;;;;4996175;28;20445;-71
2023/11/10 02:39:25;;;;;;;4.00;1.20;;;10.00;97.10;;;;;;4995630;28;20464;-70
2023/11/10 02:41:54;;;;;;;5.33;1.40;;;10.00;97.30;;;;;;4993717;28;20499;-71
2023/11/10 02:44:22;;;;;;;2.57;0.97;;;9.90;98.00;;;;;;4995565;28;20868;-71
2023/11/10 02:46:51;;;;;;;10.97;1.30;;;9.90;98.10;;;;;;4995613;28;20452;-71
2023/11/10 02:49:20;;;;;;;3.00;1.23;;;10.00;97.50;;;;;;4995314;28;20476;-70
2023/11/10 02:51:46;;;;;;;7.20;1.20;;;10.00;97.90;;;;;;4994545;28;20534;-71
2023/11/10 02:54:13;;;;;;;2.70;1.50;;;9.90;98.00;;;;;;4995956;28;20444;-71
2023/11/10 02:56:41;;;;;;;3.60;1.37;;;10.00;97.80;;;;;;5005433;28;20506;-71
2023/11/10 02:59:08;;;;;;;3.63;0.73;;;10.00;97.50;;;;;;5000969;28;20475;-72
2023/11/10 03:01:36;;;;;;;3.23;1.13;;;9.90;98.20;;;;;;5008319;28;20488;-73
2023/11/10 03:04:03;;;;;;;2.87;1.07;;;9.90;98.10;;;;;;5000348;28;20456;-73
2023/11/10 03:06:29;;;;;;;2.63;1.00;;;10.00;97.70;;;;;;4997294;28;20467;-71
2023/11/10 03:08:56;;;;;;;3.87;1.23;;;10.00;97.80;;;;;;4998345;28;20467;-70
2023/11/10 03:11:24;;;;;;;5.70;1.20;;;10.00;98.40;;;;;;4997314;28;20455;-70
2023/11/10 03:13:54;;;;;;;2.27;0.87;;;10.00;98.50;;;;;;4996551;28;20445;-70
2023/11/10 03:16:21;;;;;;;2.30;0.90;;;10.00;98.30;;;;;;4996407;28;20802;-70
2023/11/10 03:18:50;;;;;;;1.93;0.93;;;10.00;98.50;;;;;;4996302;28;20452;-70
2023/11/10 03:21:17;;;;;;;2.33;1.00;;;9.90;99.10;;;;;;4996251;28;20796;-70
2023/11/10 03:23:45;;;;;;;3.37;0.90;;;9.90;99.50;;;;;;4995085;28;20623;-70
2023/11/10 03:26:12;;;;;;;4.73;1.57;;;9.90;99.70;;;;;;4996378;28;20456;-70
2023/11/10 03:28:39;;;;;;;2.00;0.80;;;9.90;99.60;;;;;;4996030;28;20858;-70
2023/11/10 03:31:08;;;;;;;7.57;1.67;;;9.90;99.90;;;;;;4995364;28;20452;-70
2023/11/10 03:33:36;;;;;;;2.30;0.90;;;9.90;99.90;;;;;;4995478;28;20444;-70
2023/11/10 03:36:06;;;;;;;4.23;1.40;;;9.90;99.90;;;;;;4995017;28;20448;-70
2023/11/10 03:38:32;;;;;;;3.43;1.33;;;9.90;99.70;;;;;;4995747;28;20470;-71
2023/11/10 03:41:01;;;;;;;7.10;1.47;;;9.90;99.50;;;;;;4994950;28;20938;-70
2023/11/10 03:43:29;;;;;;;3.10;0.90;;;9.90;99.50;;;;;;4994662;28;20511;-70
2023/11/10 03:45:56;;;;;;;7.10;1.30;;;9.90;99.60;;;;;;4994483;28;20452;-70
2023/11/10 03:48:25;;;;;;;3.40;1.27;;;9.90;99.40;;;;;;4994152;28;20452;-70
2023/11/10 03:50:51;;;;;;;7.00;1.43;;;9.90;99.90;;;;;;4993837;28;20468;-70
2023/11/10 03:53:20;;;;;;;1.53;0.93;;;9.80;99.60;;;;;;4994149;28;20447;-70
2023/11/10 03:55:46;;;;;;;8.67;1.63;;;9.80;99.90;;;;;;4994182;28;20453;-70
2023/11/10 03:58:13;;;;;;;3.20;0.80;;;9.80;99.90;;;;;;4994578;28;20531;-71
2023/11/10 04:00:40;;;;;;;2.40;0.90;;;9.80;99.90;;;;;;4993854;28;20487;-70
2023/11/10 04:03:07;;;;;;;4.80;1.93;;;9.80;99.90;;;;;;4994173;28;20860;-70
2023/11/10 04:05:34;;;;;;;2.30;1.47;;;9.80;99.90;;;;;;4994362;28;20543;-70
2023/11/10 04:08:03;;;;;;;5.07;1.40;;;9.80;99.90;;;;;;4993950;28;20941;-70
2023/11/10 04:10:32;;;;;;;2.53;1.17;;;9.80;99.90;;;;;;4992989;28;20567;-70
2023/11/10 04:12:58;;;;;;;4.80;1.10;;;9.80;99.90;;;;;;4993817;28;20440;-70
2023/11/10 04:15:26;;;;;;;2.87;0.97;;;9.80;99.90;;;;;;4995104;28;20456;-71
2023/11/10 04:17:53;;;;;;;4.77;1.00;;;9.80;99.90;;;;;;4994059;28;20942;-71
2023/11/10 04:20:20;;;;;;;3.43;0.97;;;9.80;99.90;;;;;;4993950;28;20469;-71
2023/11/10 04:22:47;;;;;;;2.50;1.27;;;9.90;99.90;;;;;;4994252;28;20578;-71
2023/11/10 04:25:15;;;;;;;7.07;2.03;;;9.90;99.90;;;;;;4994075;28;20515;-71
2023/11/10 04:27:44;;;;;;;3.20;1.17;;;9.90;99.90;;;;;;4994070;28;20459;-70
2023/11/10 04:30:12;;;;;;;3.50;1.17;;;9.90;99.90;;;;;;4993887;28;20476;-70
2023/11/10 04:32:38;;;;;;;3.67;1.37;;;9.90;99.90;;;;;;4992930;28;20451;-71
2023/11/10 04:35:07;;;;;;;3.00;0.97;;;9.90;99.90;;;;;;4993369;28;20824;-71
2023/11/10 04:37:34;;;;;;;3.17;1.07;;;9.90;99.90;;;;;;4993876;28;20449;-71
2023/11/10 04:40:00;;;;;;;7.10;2.37;;;9.90;99.90;;;;;;4993919;28;20491;-70
2023/11/10 04:42:27;;;;;;;5.23;1.73;;;9.90;99.90;;;;;;4993842;28;20486;-71
2023/11/10 04:44:55;;;;;;;4.63;1.30;;;9.90;99.80;;;;;;4992276;28;20491;-71
2023/11/10 04:47:22;;;;;;;4.73;1.40;;;9.80;99.60;;;;;;4994083;28;20451;-70
2023/11/10 04:49:49;;;;;;;4.73;3.60;;;9.70;99.60;;;;;;4993788;28;20468;-71
2023/11/10 04:52:16;;;;;;;2.57;0.80;;;9.70;99.80;;;;;;4995056;28;20444;-71
2023/11/10 04:54:45;;;;;;;7.00;1.40;;;9.70;99.90;;;;;;4992996;28;20448;-71
2023/11/10 04:57:12;;;;;;;2.43;1.60;;;9.60;99.90;;;;;;4993881;28;20478;-71
2023/11/10 04:59:40;;;;;;;3.90;1.13;;;9.70;99.90;;;;;;4993293;28;20982;-71
2023/11/10 05:02:09;;;;;;;2.33;1.33;;;9.70;99.90;;;;;;4994078;28;20808;-71
2023/11/10 05:04:39;;;;;;;2.87;1.07;;;9.70;99.90;;;;;;4994415;28;20456;-71
2023/11/10 05:07:07;;;;;;;4.93;1.20;;;9.80;99.90;;;;;;4997245;28;20514;-71
2023/11/10 05:09:34;;;;;;;4.33;1.10;;;9.80;99.90;;;;;;4995603;28;20487;-71
2023/11/10 05:12:00;;;;;;;4.83;1.30;;;9.80;99.90;;;;;;4997387;28;20459;-71
2023/11/10 05:14:27;;;;;;;3.10;1.43;;;9.70;99.90;;;;;;4997183;28;20870;-72
2023/11/10 05:16:54;;;;;;;2.73;1.20;;;9.70;99.90;;;;;;5007818;28;20455;-72
2023/11/10 05:19:22;;;;;;;2.20;1.10;;;9.80;99.70;;;;;;5003470;28;21008;-73
2023/11/10 05:21:50;;;;;;;1.43;0.90;;;9.80;99.60;;;;;;5000836;28;20969;-73
2023/11/10 05:24:19;;;;;;;3.50;1.33;;;9.70;99.60;;;;;;4981524;28;20504;-73
2023/11/10 05:26:46;;;;;;;3.83;1.47;;;9.70;99.70;;;;;;4998380;28;20448;-73
2023/11/10 05:29:13;;;;;;;4.77;1.30;;;9.80;99.80;;;;;;4997046;28;21005;-72
2023/11/10 05:31:41;;;;;;;4.50;1.37;;;9.80;99.80;;;;;;4997300;28;20463;-73
2023/11/10 05:34:07;;;;;;;5.57;2.03;;;9.80;99.80;;;;;;4997430;28;20476;-73
2023/11/10 05:36:35;;;;;;;4.60;0.90;;;9.80;99.90;;;;;;5011141;28;20946;-73
2023/11/10 05:39:02;;;;;;;2.00;1.30;;;9.80;99.90;;;;;;4998355;28;20993;-73
2023/11/10 05:41:32;;;;;;;2.23;1.00;;;9.90;99.90;;;;;;4997999;28;20455;-72
2023/11/10 05:43:59;;;;;;;3.13;1.10;;;9.90;99.90;;;;;;4996862;28;20479;-73
2023/11/10 05:46:26;;;;;;;4.30;1.40;;;9.90;99.90;;;;;;4996914;28;20452;-71
2023/11/10 05:48:53;;;;;;;3.67;2.70;;;9.90;99.90;;;;;;4996499;28;20484;-70
2023/11/10 05:51:20;;;;;;;2.53;1.17;;;9.90;99.70;;;;;;4996990;28;20448;-71
2023/11/10 05:53:48;;;;;;;3.30;1.10;;;9.90;99.70;;;;;;4994755;28;20457;-70
2023/11/10 05:56:15;;;;;;;5.10;1.57;;;9.80;99.90;;;;;;4996942;28;20448;-71
2023/11/10 05:58:42;;;;;;;5.00;1.07;;;9.80;99.50;;;;;;4997253;28;20455;-72
2023/11/10 06:01:10;;;;;;;7.13;1.27;;;9.80;99.50;;;;;;5003328;28;20484;-70
2023/11/10 06:03:37;;;;;;;2.10;1.00;;;9.80;99.60;;;;;;4991788;28;20876;-70
2023/11/10 06:06:04;;;;;;;5.20;1.30;;;9.80;99.70;;;;;;4999811;28;20448;-70
2023/11/10 06:08:33;;;;;;;3.83;1.10;;;9.80;99.80;;;;;;5001897;28;20449;-71
2023/11/10 06:11:02;;;;;;;5.60;0.97;;;9.90;99.90;;;;;;4986829;28;20943;-70
2023/11/10 06:13:29;;;;;;;6.10;1.20;;;9.90;99.70;;;;;;4990058;28;20462;-71
2023/11/10 06:15:56;;;;;;;3.93;1.00;;;9.90;99.80;;;;;;4997785;28;20440;-71
2023/11/10 06:18:23;;;;;;;1.87;0.90;;;9.90;99.30;;;;;;4997529;28;20456;-70
2023/11/10 06:20:50;;;;;;;4.00;1.13;;;9.90;99.40;;;;;;4997137;28;20508;-70
2023/11/10 06:23:16;;;;;;;4.57;1.20;;;9.90;99.20;;;;;;4996521;28;20476;-70
2023/11/10 06:25:43;;;;;;;2.50;0.93;;;9.90;99.10;;;;;;4996581;28;20480;-71
2023/11/10 06:28:11;;;;;;;2.80;1.23;;;9.90;98.90;;;;;;4996211;28;20448;-71
2023/11/10 06:30:39;;;;;;;5.83;1.73;;;9.90;98.90;;;;;;4996540;28;20886;-71
2023/11/10 06:33:07;;;;;;;8.07;1.23;;;9.90;99.10;;;;;;4995843;28;20440;-70
2023/11/10 06:35:35;;;;;;;2.07;0.70;;;10.00;98.60;;;;;;4995662;28;20459;-70
2023/11/10 06:38:02;;;;;;;5.27;1.27;;;9.90;99.00;;;;;;4996090;28;20452;-71
2023/11/10 06:40:28;;;;;;;1.63;0.70;;;9.90;99.00;;;;;;4995947;28;20466;-71
2023/11/10 06:42:55;;;;;;;3.73;1.40;;;9.90;98.80;;;;;;4994587;28;20444;-70
2023/11/10 06:45:23;;;;;;;1.57;0.80;;;9.90;98.90;;;;;;4995459;28;20961;-70
2023/11/10 06:47:51;;;;;;;2.60;0.90;;;9.90;98.80;;;;;;4995316;28;20444;-71
2023/11/10 06:50:18;;;;;;;4.20;0.87;;;10.00;98.30;;;;;;4995013;28;20476;-71
2023/11/10 06:52:45;;;;;;;2.40;0.80;;;9.90;99.00;;;;;;4995584;28;20448;-70
2023/11/10 06:55:14;;;;;;;7.87;1.10;;;9.90;98.90;;;;;;4995245;28;20791;-71
2023/11/10 06:57:43;;;;;;;7.43;1.20;;;10.00;98.40;;;;;;4995623;28;20910;-71
2023/11/10 07:00:12;;;;;;;2.47;1.20;;;10.00;97.80;;;;;;4994617;28;20485;-71
2023/11/10 07:02:40;;;;;;;2.50;1.10;;;9.90;97.90;;;;;;4994368;28;20456;-71
2023/11/10 07:05:09;;;;;;;6.40;1.33;;;9.90;98.20;;;;;;4994991;28;20507;-71
2023/11/10 07:07:36;;;;;;;0.80;0.53;;;9.90;98.30;;;;;;4995397;28;20449;-71
2023/11/10 07:10:04;;;;;;;0.70;0.70;;;9.90;98.00;;;;;;4995057;28;21036;-70
2023/11/10 07:12:30;;;;;;;4.50;0.90;;;9.90;98.20;;;;;;4995125;28;20487;-71
2023/11/10 07:14:58;;;;;;;2.73;1.63;;;9.90;98.10;;;;;;4994718;28;20451;-70
2023/11/10 07:17:26;;;;;;;1.20;0.87;;;9.90;97.70;;;;;;4994859;28;20491;-71
2023/11/10 07:19:55;;;;;;;0.90;0.70;;;9.90;97.60;;;;;;4994659;28;20892;-71
2023/11/10 07:22:21;;;;;;;2.10;1.03;;;9.90;97.80;;;;;;4993921;28;20448;-71
2023/11/10 07:24:48;;;;;;;1.43;0.80;;;9.90;97.50;;;;;;4995355;28;20480;-71
2023/11/10 07:27:15;;;;;;;2.00;0.80;;;9.90;97.30;;;;;;4995810;28;20456;-70
2023/11/10 07:29:42;;;;;;;2.50;0.80;;;9.90;97.50;;;;;;4996471;28;20834;-70
2023/11/10 07:32:09;;;;;;;1.90;0.77;;;10.00;97.00;;;;;;4996110;28;20459;-70
2023/11/10 07:34:36;;;;;;;2.50;0.80;;;10.00;97.10;;;;;;5009167;28;20460;-69
2023/11/10 07:37:05;;;;;;;3.77;1.17;;;10.00;97.00;;;;;;4999064;28;20484;-70
2023/11/10 07:39:32;;;;;;;1.87;1.00;;;9.90;97.30;;;;;;4997880;28;20475;-71
2023/11/10 07:41:59;;;;;;;3.30;0.70;;;9.90;97.70;;;;;;4997231;28;20448;-71
2023/11/10 07:44:26;;;;;;;3.73;1.10;;;9.90;97.80;;;;;;4996843;28;20542;-70
2023/11/10 07:46:53;;;;;;;4.23;1.20;;;9.90;97.60;;;;;;4996510;28;20471;-70
2023/11/10 07:49:20;;;;;;;2.53;0.87;;;9.90;97.70;;;;;;4995741;28;20472;-70
2023/11/10 07:51:47;;;;;;;2.87;0.93;;;9.90;97.80;;;;;;4996128;28;20453;-71
2023/11/10 07:54:17;;;;;;;1.33;0.90;;;9.90;97.80;;;;;;4995918;28;20447;-70
2023/11/10 07:56:44;;;;;;;4.90;1.30;;;9.90;97.80;;;;;;4996156;28;20445;-71
2023/11/10 07:59:11;;;;;;;6.20;1.50;;;9.90;97.70;;;;;;4993835;28;20480;-70
2023/11/10 08:01:37;;;;;;;4.03;1.50;;;10.00;96.90;;;;;;4995799;28;20456;-70
2023/11/10 08:04:06;;;;;;;2.97;1.20;;;10.10;97.00;;;;;;4994884;28;20511;-70
2023/11/10 08:06:33;;;;;;;4.70;1.20;;;10.20;96.90;;;;;;4995076;28;20459;-70
2023/11/10 08:09:01;;;;;;;4.63;1.40;;;10.30;96.90;;;;;;4994632;28;20472;-71
2023/11/10 08:11:30;;;;;;;4.10;1.00;;;10.30;96.50;;;;;;4995225;28;20531;-70
2023/11/10 08:13:56;;;;;;;8.20;1.43;;;10.40;96.50;;;;;;4995340;28;20539;-76
2023/11/10 08:16:23;;;;;;;5.60;1.30;;;10.40;96.60;;;;;;4996566;28;20454;-74
2023/11/10 08:18:50;;;;;;;3.47;1.40;;;10.40;96.40;;;;;;5002359;28;20465;-73
2023/11/10 08:21:18;;;;;;;1.60;1.00;;;10.40;96.30;;;;;;4994907;28;20455;-73
2023/11/10 08:23:45;;;;;;;4.47;1.80;;;10.40;96.50;;;;;;4994777;28;20515;-74
2023/11/10 08:26:12;;;;;;;2.07;0.90;;;10.40;96.60;;;;;;4995166;28;20448;-76
2023/11/10 08:28:41;;;;;;;3.90;0.80;;;10.50;96.50;;;;;;4997508;28;20448;-76
2023/11/10 08:31:07;;;;;;;4.83;1.20;;;10.50;96.10;;;;;;4995827;28;20951;-77
2023/11/10 08:33:35;;;;;;;5.40;1.60;;;10.50;96.00;;;;;;4993638;28;20467;-76
2023/11/10 08:36:01;;;;;;;4.83;1.40;;;10.60;96.50;;;;;;4994984;28;20875;-74
2023/11/10 08:38:31;;;;;;;4.70;1.33;;;10.60;96.10;;;;;;4995526;28;20472;-72
2023/11/10 08:40:59;;;;;;;4.23;1.07;;;10.60;96.00;;;;;;4997666;28;20448;-72
2023/11/10 08:43:27;;;;;;;6.37;1.53;;;10.60;95.90;;;;;;4998096;28;20487;-73
2023/11/10 08:45:55;;;;;;;3.90;1.60;;;10.60;96.10;;;;;;4998276;28;20483;-72
2023/11/10 08:48:22;;;;;;;5.70;1.27;;;10.50;96.10;;;;;;4997993;28;20448;-72
2023/11/10 08:50:49;;;;;;;7.30;1.20;;;10.50;96.40;;;;;;4998431;28;20496;-72
2023/11/10 08:53:16;;;;;;;4.43;1.30;;;10.50;95.90;;;;;;4998899;28;20448;-72
2023/11/10 08:55:43;;;;;;;2.80;1.10;;;10.40;95.80;;;;;;4998973;28;20436;-72
2023/11/10 08:58:13;;;;;;;2.20;0.93;;;10.40;95.50;;;;;;4998989;28;20842;-73
2023/11/10 09:00:40;;;;;;;9.43;1.43;;;10.50;95.90;;;;;;4998068;28;20471;-73
2023/11/10 09:03:08;;;;;;;4.43;1.10;;;10.50;95.70;;;;;;4997864;28;20820;-72
2023/11/10 09:05:35;;;;;;;2.93;1.20;;;10.60;95.50;;;;;;4998075;28;20951;-72
2023/11/10 09:08:02;;;;;;;5.00;1.43;;;10.60;95.20;;;;;;4999177;28;20480;-71
2023/11/10 09:10:29;;;;;;;6.40;1.43;;;10.70;94.50;;;;;;4998690;28;20563;-73
2023/11/10 09:12:55;;;;;;;9.13;2.13;;;10.80;94.50;;;;;;4999044;28;20448;-72
2023/11/10 09:15:24;;;;;;;7.00;1.30;;;10.80;94.40;;;;;;4999676;28;20452;-71
2023/11/10 09:17:53;;;;;;;3.30;0.83;;;10.80;94.30;;;;;;4997849;28;20965;-72
2023/11/10 09:20:24;;;;;;;4.70;1.37;;;10.90;93.90;;;;;;4995958;28;20472;-71
2023/11/10 09:22:52;;;;;;;4.93;1.63;;;11.00;93.60;;;;;;4996625;28;20444;-72
2023/11/10 09:25:28;;;;;;;3.10;1.30;;;11.00;93.20;;;;;;4997467;28;20830;-72
2023/11/10 09:27:56;;;;;;;1.80;1.03;;;10.90;93.30;;;;;;4997910;28;20456;-71
2023/11/10 09:30:28;;;;;;;4.90;1.13;;;11.10;93.30;;;;;;4997527;28;20526;-71
2023/11/10 09:32:56;;;;;;;4.97;1.60;;;11.10;93.00;;;;;;4996920;28;20923;-72
2023/11/10 09:35:29;;;;;;;3.50;0.83;;;11.20;92.70;;;;;;4996960;28;20539;-72
2023/11/10 09:37:56;;;;;;;6.93;1.50;;;11.30;92.70;;;;;;4996743;28;20514;-72
2023/11/10 09:40:23;;;;;;;6.80;2.00;;;11.50;92.80;;;;;;4996590;28;21001;-72
2023/11/10 09:42:51;;;;;;;4.10;1.50;;;11.60;92.00;;;;;;4997255;28;20453;-72
2023/11/10 09:45:18;;;;;;;5.10;1.20;;;11.70;91.60;;;;;;4996693;28;20484;-73
2023/11/10 09:47:47;;;;;;;5.80;1.47;;;11.70;91.40;;;;;;4996179;28;20444;-73
2023/11/10 09:50:15;;;;;;;8.43;1.80;;;11.70;91.40;;;;;;5008317;28;20487;-72
2023/11/10 09:52:47;;;;;;;4.80;1.07;;;11.80;91.20;;;;;;5000662;28;20808;-72
2023/11/10 09:55:14;;;;;;;6.90;1.20;;;11.80;91.20;;;;;;4998592;28;20436;-73
2023/11/10 09:57:42;;;;;;;5.77;1.40;;;11.80;91.10;;;;;;4997453;28;20444;-73
2023/11/10 10:00:16;;;;;;;6.33;1.30;;;11.70;91.20;;;;;;4996971;28;20468;-73
2023/11/10 10:02:47;;;;;;;3.10;1.50;;;11.80;91.60;;;;;;4996521;28;20483;-72
2023/11/10 10:05:14;;;;;;;4.90;1.80;;;11.70;91.50;;;;;;4996352;28;21067;-72
2023/11/10 10:07:47;;;;;;;8.90;1.77;;;11.70;91.50;;;;;;4996224;28;20953;-72
2023/11/10 10:10:14;;;;;;;3.10;1.17;;;11.90;91.70;;;;;;4996471;28;20461;-72
2023/11/10 10:12:42;;;;;;;8.40;1.17;;;12.00;91.50;;;;;;4996052;28;20946;-72
2023/11/10 10:15:12;;;;;;;4.67;1.33;;;12.10;91.10;;;;;;4994730;28;20440;-71
2023/11/10 10:17:42;;;;;;;7.10;1.40;;;12.20;90.40;;;;;;4995920;28;20507;-72
2023/11/10 10:20:13;;;;;;;4.60;1.27;;;12.30;90.40;;;;;;4995438;28;20472;-72
2023/11/10 10:22:44;;;;;;;3.90;1.57;;;12.50;90.10;;;;;;4996038;28;20534;-72
2023/11/10 10:25:13;;;;;;;8.03;1.70;;;12.60;89.50;;;;;;4996024;28;20563;-73
2023/11/10 10:27:42;;;;;;;9.87;2.57;;;12.60;89.10;;;;;;4995818;28;20527;-72
2023/11/10 10:30:11;;;;;;;5.13;2.10;;;12.60;88.30;;;;;;4994721;28;20842;-72
2023/11/10 10:32:38;;;;;;;7.37;2.43;;;12.40;88.00;;;;;;4994855;28;20491;-72
2023/11/10 10:35:07;;;;;;;5.80;1.70;;;12.30;88.30;;;;;;4996878;28;20444;-72
2023/11/10 10:37:39;;;;;;;8.80;1.97;;;12.30;88.30;;;;;;4996210;28;20456;-71
2023/11/10 10:40:11;;;;;;;7.73;1.50;;;12.20;88.40;;;;;;4996464;28;20471;-72
2023/11/10 10:42:43;;;;;;;6.27;1.50;;;12.10;88.30;;;;;;4995105;28;20460;-72
2023/11/10 10:45:12;;;;;;;6.53;2.30;;;12.10;88.90;;;;;;4996138;28;20479;-72
2023/11/10 10:47:41;;;;;;;2.87;1.20;;;12.00;89.20;;;;;;4996621;28;20448;-72
2023/11/10 10:50:12;;;;;;;7.00;2.00;;;11.90;88.60;;;;;;4995169;28;20471;-72
2023/11/10 10:52:42;;;;;;;6.93;1.00;;;11.80;89.30;;;;;;4994869;28;20954;-72
2023/11/10 10:55:11;;;;;;;6.37;1.47;;;11.70;89.50;;;;;;4995543;28;20448;-73
2023/11/10 10:57:40;;;;;;;4.23;1.20;;;11.60;90.00;;;;;;4995177;28;20953;-72
2023/11/10 11:00:15;;;;;;;4.40;1.40;;;11.60;90.50;;;;;;5003490;28;20471;-73
2023/11/10 11:02:43;;;;;;;6.37;1.17;;;11.50;90.40;;;;;;4997822;28;20456;-72
2023/11/10 11:05:31;;;;;;;4.30;1.03;;;11.50;90.90;;;;;;4999022;28;20483;-72
2023/11/10 11:08:15;;;;;;;5.73;1.50;;;11.40;90.90;;;;;;4996274;28;20799;-72
2023/11/10 11:11:05;;;;;;;7.10;2.10;;;11.30;91.10;;;;;;4995514;28;20468;-71
2023/11/10 11:14:17;;;;;;;11.70;2.47;;;11.30;91.10;;;;;;4995328;28;21001;-71
2023/11/10 11:17:00;;;;;;;9.23;1.43;;;11.30;91.10;;;;;;4993792;28;20468;-71
2023/11/10 11:19:31;;;;;;;4.30;1.27;;;11.30;91.20;;;;;;4995038;28;20472;-71
2023/11/10 11:22:00;;;;;;;4.67;0.80;;;11.30;91.30;;;;;;4995152;28;20428;-72
2023/11/10 11:24:31;;;;;;;5.57;1.57;;;11.30;91.20;;;;;;4995265;28;20901;-73
2023/11/10 11:27:03;;;;;;;3.20;1.10;;;11.20;91.30;;;;;;4995017;28;20432;-74
2023/11/10 11:29:38;;;;;;;4.70;1.60;;;11.20;91.40;;;;;;4996537;28;20873;-74
2023/11/10 11:32:08;;;;;;;3.10;1.20;;;11.30;92.00;;;;;;4996053;28;20459;-73
2023/11/10 11:34:36;;;;;;;5.90;1.70;;;11.30;92.40;;;;;;4996684;28;20444;-74
2023/11/10 11:37:05;;;;;;;4.53;1.10;;;11.30;92.80;;;;;;4999008;28;20450;-75
2023/11/10 11:39:53;;;;;;;2.17;1.30;;;11.30;92.90;;;;;;5000407;28;20476;-74
2023/11/10 11:42:27;;;;;;;4.40;1.10;;;11.20;93.00;;;;;;4997250;28;20476;-78
2023/11/10 11:44:58;;;;;;;7.00;1.57;;;11.20;93.30;;;;;;4995524;28;20477;-75
2023/11/10 11:47:33;;;;;;;5.80;1.93;;;11.20;93.40;;;;;;4994464;28;20428;-76
2023/11/10 11:50:02;;;;;;;3.00;1.23;;;11.20;92.70;;;;;;4992815;28;20499;-76
2023/11/10 11:52:30;;;;;;;5.10;1.03;;;11.20;92.70;;;;;;4994656;28;20460;-75
2023/11/10 11:54:57;;;;;;;4.33;1.20;;;11.20;92.80;;;;;;4995060;28;20514;-76
2023/11/10 11:57:25;;;;;;;0.93;0.80;;;11.30;92.90;;;;;;4994060;28;20440;-76
2023/11/10 11:59:52;;;;;;;2.57;0.70;;;11.30;92.70;;;;;;4994569;28;20510;-76
2023/11/10 12:02:20;;;;;;;3.83;0.80;;;11.30;92.30;;;;;;5007765;28;20456;-73
2023/11/10 12:04:48;;;;;;;2.00;1.30;;;11.30;92.40;;;;;;4998327;28;20483;-74
2023/11/10 12:07:18;;;;;;;1.60;0.60;;;11.40;92.70;;;;;;4996401;28;20452;-74
2023/11/10 12:09:45;;;;;;;2.10;0.70;;;11.30;92.10;;;;;;4995294;28;20456;-75
2023/11/10 12:12:15;;;;;;;1.33;0.70;;;11.40;92.60;;;;;;4994989;28;20448;-74
2023/11/10 12:14:42;;;;;;;2.50;0.70;;;11.40;92.10;;;;;;4997341;28;20444;-73
2023/11/10 12:17:09;;;;;;;3.23;1.03;;;11.40;92.30;;;;;;4998332;28;20440;-75
2023/11/10 12:19:38;;;;;;;5.50;1.30;;;11.30;91.90;;;;;;4997912;28;20587;-75
2023/11/10 12:22:05;;;;;;;2.10;0.70;;;11.40;91.90;;;;;;4998303;28;20452;-74
2023/11/10 12:24:32;;;;;;;1.63;0.90;;;11.50;92.20;;;;;;4998445;28;20483;-74
2023/11/10 12:27:00;;;;;;;1.63;0.90;;;11.50;92.40;;;;;;4998461;28;20857;-73
2023/11/10 12:29:32;;;;;;;5.20;1.10;;;11.60;92.20;;;;;;4998191;28;20514;-75
2023/11/10 12:31:59;;;;;;;5.53;2.27;;;11.60;91.80;;;;;;4998255;28;20447;-73
2023/11/10 12:34:28;;;;;;;3.20;1.80;;;11.60;92.00;;;;;;4998827;28;20923;-75
2023/11/10 12:37:02;;;;;;;1.23;0.73;;;11.60;92.10;;;;;;4998562;28;20491;-75
2023/11/10 12:39:30;;;;;;;4.73;0.90;;;11.70;92.10;;;;;;4998249;28;20474;-76
2023/11/10 12:42:00;;;;;;;0.93;0.73;;;11.70;92.10;;;;;;4998573;28;20455;-75
2023/11/10 12:44:27;;;;;;;2.30;0.93;;;11.70;92.30;;;;;;4999901;28;20441;-71
2023/11/10 12:46:55;;;;;;;1.90;0.73;;;11.70;92.70;;;;;;4998042;28;20480;-69
2023/11/10 12:49:24;;;;;;;4.53;0.83;;;11.70;93.20;;;;;;4997483;28;20514;-69
2023/11/10 12:51:51;;;;;;;3.83;0.97;;;11.60;93.90;;;;;;4996869;28;20444;-69
2023/11/10 12:54:22;;;;;;;2.73;1.00;;;11.60;94.50;;;;;;4997902;28;20988;-68
2023/11/10 12:56:52;;;;;;;2.30;0.67;;;11.50;95.10;;;;;;4998186;28;20460;-69